createdAt,value
2018-05-12T00:01:49.924Z,15.57
2018-05-12T00:04:15.753Z,15.23
2018-05-12T00:06:41.618Z,14.80
2018-05-12T00:09:07.490Z,14.90
2018-05-12T00:11:33.333Z,15.50
2018-05-12T00:13:59.152Z,14.93
2018-05-12T00:16:24.981Z,14.70
2018-05-12T00:18:50.855Z,15.23
2018-05-12T00:21:16.689Z,14.47
2018-05-12T00:23:42.500Z,15.40
2018-05-12T00:26:08.360Z,15.27
2018-05-12T00:28:34.262Z,15.40
2018-05-12T00:31:00.149Z,14.77
2018-05-12T00:33:26.034Z,15.80
2018-05-12T00:35:51.910Z,14.40
2018-05-12T00:38:17.776Z,15.63
2018-05-12T00:40:43.665Z,14.63
2018-05-12T00:43:09.490Z,16.83
2018-05-12T00:45:35.329Z,18.17
2018-05-12T00:48:01.246Z,16.17
2018-05-12T00:50:27.116Z,18.17
2018-05-12T00:52:52.997Z,16.60
2018-05-12T00:55:18.866Z,17.80
2018-05-12T00:57:44.744Z,17.10
2018-05-12T01:00:10.900Z,17.20
2018-05-12T01:02:36.740Z,18.10
2018-05-12T01:05:02.909Z,16.40
2018-05-12T01:07:28.752Z,18.10
2018-05-12T01:09:54.594Z,16.37
2018-05-12T01:12:20.448Z,16.90
2018-05-12T01:14:46.278Z,16.60
2018-05-12T01:17:12.126Z,15.60
2018-05-12T01:19:37.964Z,16.77
2018-05-12T01:22:03.802Z,17.03
2018-05-12T01:24:29.618Z,17.00
2018-05-12T01:26:55.488Z,16.83
2018-05-12T01:29:21.324Z,15.30
2018-05-12T01:31:47.159Z,16.40
2018-05-12T01:34:13.031Z,15.70
2018-05-12T01:36:38.875Z,16.60
2018-05-12T01:39:04.756Z,14.80
2018-05-12T01:41:30.574Z,17.50
2018-05-12T01:43:56.465Z,16.47
2018-05-12T01:46:22.354Z,16.33
2018-05-12T01:48:48.203Z,15.43
2018-05-12T01:51:14.024Z,16.70
2018-05-12T01:53:39.880Z,15.20
2018-05-12T01:56:05.738Z,15.17
2018-05-12T01:58:31.593Z,15.83
2018-05-12T02:00:57.405Z,16.37
2018-05-12T02:03:23.220Z,16.60
2018-05-12T02:05:49.066Z,15.57
2018-05-12T02:08:14.901Z,16.53
2018-05-12T02:10:40.795Z,16.43
2018-05-12T02:13:06.659Z,15.50
2018-05-12T02:15:32.515Z,17.27
2018-05-12T02:17:58.399Z,16.13
2018-05-12T02:20:24.253Z,15.87
2018-05-12T02:22:50.105Z,16.17
2018-05-12T02:25:15.941Z,14.67
2018-05-12T02:27:41.782Z,16.07
2018-05-12T02:30:07.614Z,16.07
2018-05-12T02:32:33.452Z,17.20
2018-05-12T02:34:59.293Z,17.30
2018-05-12T02:37:25.156Z,16.40
2018-05-12T02:39:50.997Z,16.30
2018-05-12T02:42:16.957Z,17.20
2018-05-12T02:44:42.720Z,15.80
2018-05-12T02:47:08.568Z,16.67
2018-05-12T02:49:34.409Z,15.20
2018-05-12T02:52:00.233Z,15.57
2018-05-12T02:54:26.095Z,16.50
2018-05-12T02:56:51.962Z,14.40
2018-05-12T02:59:17.852Z,15.97
2018-05-12T03:01:43.703Z,14.87
2018-05-12T03:04:09.567Z,15.87
2018-05-12T03:06:35.443Z,15.93
2018-05-12T03:09:01.284Z,15.67
2018-05-12T03:11:27.120Z,16.17
2018-05-12T03:13:53.067Z,16.47
2018-05-12T03:16:18.817Z,16.70
2018-05-12T03:18:44.703Z,15.77
2018-05-12T03:21:10.564Z,16.50
2018-05-12T03:23:36.420Z,16.40
2018-05-12T03:26:02.270Z,15.40
2018-05-12T03:28:28.088Z,14.37
2018-05-12T03:30:53.937Z,16.03
2018-05-12T03:33:19.792Z,16.83
2018-05-12T03:35:45.656Z,16.00
2018-05-12T03:38:11.518Z,16.63
2018-05-12T03:40:37.376Z,16.37
2018-05-12T03:43:03.302Z,18.67
2018-05-12T03:45:29.153Z,19.03
2018-05-12T03:47:55.024Z,17.53
2018-05-12T03:50:20.905Z,16.80
2018-05-12T03:52:46.737Z,14.90
2018-05-12T03:55:12.573Z,16.50
2018-05-12T03:57:38.428Z,14.47
2018-05-12T04:00:04.399Z,15.53
2018-05-12T04:02:30.192Z,18.37
2018-05-12T04:05:08.355Z,17.00
2018-05-12T04:07:46.630Z,17.13
2018-05-12T04:13:08.344Z,17.50
2018-05-12T04:15:34.168Z,18.70
2018-05-12T04:18:00.066Z,19.83
2018-05-12T04:20:25.902Z,18.03
2018-05-12T04:22:51.767Z,18.03
2018-05-12T04:25:17.598Z,18.90
2018-05-12T04:27:43.437Z,17.10
2018-05-12T04:30:09.314Z,18.13
2018-05-12T04:32:35.157Z,18.50
2018-05-12T04:35:00.996Z,19.50
2018-05-12T04:37:26.897Z,19.83
2018-05-12T04:39:52.756Z,18.83
2018-05-12T04:42:18.561Z,18.23
2018-05-12T04:44:44.420Z,19.00
2018-05-12T04:47:10.254Z,19.37
2018-05-12T04:49:36.094Z,20.80
2018-05-12T04:52:01.968Z,19.47
2018-05-12T04:54:27.800Z,20.10
2018-05-12T04:56:53.643Z,22.87
2018-05-12T04:59:19.591Z,22.33
2018-05-12T05:01:45.389Z,24.67
2018-05-12T05:04:11.241Z,22.07
2018-05-12T05:06:37.089Z,20.00
2018-05-12T05:09:02.984Z,20.90
2018-05-12T05:11:28.869Z,22.17
2018-05-12T05:13:54.769Z,24.13
2018-05-12T05:16:20.632Z,23.17
2018-05-12T05:18:46.503Z,24.30
2018-05-12T05:21:12.376Z,26.13
2018-05-12T05:23:38.241Z,27.67
2018-05-12T05:26:04.105Z,25.97
2018-05-12T05:28:29.946Z,27.80
2018-05-12T05:30:55.800Z,25.50
2018-05-12T05:33:21.642Z,23.43
2018-05-12T05:35:47.489Z,24.07
2018-05-12T05:38:13.392Z,22.57
2018-05-12T05:40:39.234Z,23.57
2018-05-12T05:43:05.072Z,24.90
2018-05-12T05:45:30.901Z,21.70
2018-05-12T05:47:56.744Z,24.47
2018-05-12T05:50:22.608Z,24.37
2018-05-12T05:52:48.448Z,25.07
2018-05-12T05:55:14.322Z,25.57
2018-05-12T05:57:40.197Z,26.73
2018-05-12T06:00:06.104Z,27.70
2018-05-12T06:02:31.984Z,26.40
2018-05-12T06:04:57.863Z,27.80
2018-05-12T06:07:23.718Z,29.17
2018-05-12T06:09:49.571Z,30.83
2018-05-12T06:12:15.420Z,30.53
2018-05-12T06:14:41.260Z,29.07
2018-05-12T06:17:07.149Z,29.90
2018-05-12T06:19:32.980Z,27.57
2018-05-12T06:21:58.878Z,29.77
2018-05-12T06:24:24.717Z,27.37
2018-05-12T06:26:50.574Z,25.97
2018-05-12T06:29:16.417Z,27.47
2018-05-12T06:31:42.237Z,27.97
2018-05-12T06:34:08.875Z,30.53
2018-05-12T06:36:34.720Z,24.93
2018-05-12T06:39:00.565Z,28.30
2018-05-12T06:41:26.373Z,27.43
2018-05-12T06:43:52.245Z,27.63
2018-05-12T06:46:18.070Z,26.77
2018-05-12T06:48:43.937Z,26.23
2018-05-12T06:51:09.773Z,26.13
2018-05-12T06:53:35.597Z,26.97
2018-05-12T06:56:01.471Z,27.10
2018-05-12T06:58:27.355Z,26.27
2018-05-12T07:00:53.213Z,28.97
2018-05-12T07:03:19.056Z,26.57
2018-05-12T07:05:44.924Z,27.37
2018-05-12T07:08:10.792Z,26.30
2018-05-12T07:10:36.636Z,27.20
2018-05-12T07:13:02.523Z,26.10
2018-05-12T07:15:28.370Z,24.50
2018-05-12T07:17:54.231Z,25.67
2018-05-12T07:20:20.073Z,25.57
2018-05-12T07:22:45.924Z,44.20
2018-05-12T07:34:56.798Z,24.33
2018-05-12T07:37:22.690Z,26.00
2018-05-12T07:39:48.525Z,21.43
2018-05-12T07:42:14.416Z,24.60
2018-05-12T07:44:40.280Z,23.63
2018-05-12T07:47:06.452Z,24.17
2018-05-12T07:49:32.288Z,22.27
2018-05-12T07:51:58.157Z,23.33
2018-05-12T07:54:24.060Z,21.50
2018-05-12T07:56:49.896Z,22.33
2018-05-12T07:59:15.803Z,22.03
2018-05-12T08:01:41.718Z,23.13
2018-05-12T08:04:07.635Z,20.77
2018-05-12T08:06:33.504Z,21.87
2018-05-12T08:08:59.357Z,21.10
2018-05-12T08:11:25.238Z,21.30
2018-05-12T08:13:51.099Z,23.87
2018-05-12T08:16:16.997Z,22.03
2018-05-12T08:18:43.466Z,20.47
2018-05-12T08:21:09.306Z,19.20
2018-05-12T08:26:30.012Z,21.43
2018-05-12T08:28:55.863Z,21.20
2018-05-12T08:31:21.701Z,19.27
2018-05-12T08:33:47.546Z,21.60
2018-05-12T08:36:13.401Z,21.30
2018-05-12T08:38:39.268Z,21.00
2018-05-12T08:41:05.133Z,19.93
2018-05-12T08:43:31.011Z,21.13
2018-05-12T08:45:56.902Z,20.73
2018-05-12T08:48:22.779Z,21.10
2018-05-12T08:50:48.613Z,19.07
2018-05-12T08:53:14.493Z,18.97
2018-05-12T08:55:40.338Z,19.57
2018-05-12T08:58:06.192Z,16.73
2018-05-12T09:00:32.036Z,16.93
2018-05-12T09:02:57.927Z,16.90
2018-05-12T09:05:23.781Z,14.50
2018-05-12T09:07:49.661Z,14.67
2018-05-12T09:10:15.553Z,16.63
2018-05-12T09:12:41.424Z,15.07
2018-05-12T09:15:07.297Z,15.87
2018-05-12T09:17:33.137Z,17.50
2018-05-12T09:19:59.008Z,14.70
2018-05-12T09:22:24.859Z,14.93
2018-05-12T09:24:50.727Z,17.47
2018-05-12T09:27:16.659Z,15.77
2018-05-12T09:29:42.501Z,15.80
2018-05-12T09:32:08.362Z,14.57
2018-05-12T09:34:34.217Z,14.30
2018-05-12T09:37:00.077Z,14.97
2018-05-12T09:39:25.968Z,14.70
2018-05-12T09:41:51.939Z,14.73
2018-05-12T09:44:17.794Z,16.40
2018-05-12T09:46:43.696Z,15.40
2018-05-12T09:49:09.578Z,15.37
2018-05-12T09:51:35.452Z,15.70
2018-05-12T09:54:01.321Z,14.40
2018-05-12T09:56:27.173Z,16.57
2018-05-12T09:58:53.040Z,15.00
2018-05-12T10:01:18.916Z,15.20
2018-05-12T10:03:44.993Z,13.30
2018-05-12T10:06:11.123Z,13.83
2018-05-12T10:08:37.002Z,14.50
2018-05-12T10:11:02.904Z,13.93
2018-05-12T10:13:28.745Z,15.20
2018-05-12T10:15:54.583Z,15.53
2018-05-12T10:18:20.437Z,13.73
2018-05-12T10:20:46.294Z,13.33
2018-05-12T10:23:12.148Z,13.83
2018-05-12T10:25:38.000Z,13.73
2018-05-12T10:28:03.854Z,14.20
2018-05-12T10:30:29.730Z,14.13
2018-05-12T10:32:55.626Z,12.53
2018-05-12T10:35:21.475Z,12.20
2018-05-12T10:37:47.387Z,11.40
2018-05-12T10:40:13.294Z,11.57
2018-05-12T10:42:39.174Z,10.17
2018-05-12T10:45:05.114Z,9.60
2018-05-12T10:47:31.013Z,11.50
2018-05-12T10:49:56.938Z,11.07
2018-05-12T10:52:22.812Z,11.13
2018-05-12T10:54:48.743Z,10.90
2018-05-12T10:57:14.613Z,13.63
2018-05-12T10:59:40.484Z,9.57
2018-05-12T11:02:06.399Z,9.13
2018-05-12T11:04:32.360Z,9.33
2018-05-12T11:06:58.256Z,9.87
2018-05-12T11:09:24.142Z,9.80
2018-05-12T11:11:50.041Z,9.00
2018-05-12T11:14:15.917Z,9.80
2018-05-12T11:16:41.809Z,10.10
2018-05-12T11:19:07.710Z,8.97
2018-05-12T11:21:33.688Z,8.97
2018-05-12T11:23:59.463Z,8.70
2018-05-12T11:26:25.350Z,9.43
2018-05-12T11:28:51.208Z,10.20
2018-05-12T11:31:17.024Z,8.50
2018-05-12T11:33:42.886Z,9.40
2018-05-12T11:36:08.751Z,8.63
2018-05-12T11:38:34.646Z,9.33
2018-05-12T11:41:00.492Z,9.40
2018-05-12T11:43:26.353Z,7.73
2018-05-12T11:45:52.268Z,9.00
2018-05-12T11:48:18.137Z,7.60
2018-05-12T11:50:43.990Z,8.30
2018-05-12T11:53:09.946Z,8.23
2018-05-12T11:55:35.844Z,8.30
2018-05-12T11:58:01.707Z,8.40
2018-05-12T12:00:27.597Z,8.27
2018-05-12T12:02:53.454Z,8.90
2018-05-12T12:05:19.429Z,7.03
2018-05-12T12:17:30.367Z,6.13
2018-05-12T12:19:56.288Z,8.20
2018-05-12T12:22:22.150Z,6.63
2018-05-12T12:24:48.079Z,9.57
2018-05-12T12:27:13.961Z,8.10
2018-05-12T12:29:39.801Z,8.90
2018-05-12T12:32:05.660Z,9.50
2018-05-12T12:34:31.552Z,7.90
2018-05-12T12:36:57.459Z,8.77
2018-05-12T12:39:23.354Z,8.87
2018-05-12T12:41:49.246Z,8.83
2018-05-12T12:44:15.127Z,8.87
2018-05-12T12:46:41.010Z,10.13
2018-05-12T12:49:06.860Z,9.17
2018-05-12T12:51:32.742Z,8.63
2018-05-12T12:53:58.616Z,8.40
2018-05-12T12:56:24.486Z,9.53
2018-05-12T12:58:50.359Z,8.03
2018-05-12T13:01:16.232Z,8.30
2018-05-12T13:03:42.081Z,8.20
2018-05-12T13:06:07.932Z,8.47
2018-05-12T13:08:33.789Z,7.93
2018-05-12T13:10:59.649Z,9.20
2018-05-12T13:13:25.516Z,8.53
2018-05-12T13:15:51.379Z,9.03
2018-05-12T13:18:17.226Z,9.03
2018-05-12T13:20:43.100Z,8.87
2018-05-12T13:23:08.954Z,9.13
2018-05-12T13:25:34.813Z,9.57
2018-05-12T13:28:00.689Z,9.00
2018-05-12T13:30:26.545Z,9.30
2018-05-12T13:32:52.459Z,9.57
2018-05-12T13:35:18.322Z,8.30
2018-05-12T13:37:44.181Z,9.60
2018-05-12T13:40:10.061Z,9.80
2018-05-12T13:42:35.930Z,8.47
2018-05-12T13:45:01.770Z,9.27
2018-05-12T13:47:27.635Z,8.70
2018-05-12T13:49:53.505Z,9.10
2018-05-12T13:52:19.391Z,9.17
2018-05-12T13:54:45.261Z,13.33
2018-05-12T13:57:11.146Z,12.30
2018-05-12T13:59:37.060Z,12.10
2018-05-12T14:02:02.935Z,5.93
2018-05-12T14:04:28.819Z,5.20
2018-05-12T14:06:54.666Z,6.10
2018-05-12T14:09:20.530Z,6.73
2018-05-12T14:11:46.375Z,5.77
2018-05-12T14:14:12.252Z,5.30
2018-05-12T14:16:38.130Z,5.90
2018-05-12T14:19:04.036Z,6.33
2018-05-12T14:21:29.895Z,6.23
2018-05-12T14:23:55.745Z,6.07
2018-05-12T14:26:21.735Z,6.97
2018-05-12T14:28:47.477Z,6.90
2018-05-12T14:31:13.345Z,7.10
2018-05-12T14:33:39.196Z,6.93
2018-05-12T14:36:05.049Z,7.50
2018-05-12T14:38:30.881Z,6.97
2018-05-12T14:40:56.782Z,7.80
2018-05-12T14:43:22.629Z,7.30
2018-05-12T14:45:48.480Z,8.37
2018-05-12T14:48:14.339Z,8.53
2018-05-12T14:50:40.201Z,7.27
2018-05-12T14:53:06.068Z,8.83
2018-05-12T14:55:31.912Z,8.23
2018-05-12T14:57:57.788Z,9.00
2018-05-12T15:00:23.631Z,8.27
2018-05-12T15:02:49.470Z,7.50
2018-05-12T15:05:15.314Z,8.40
2018-05-12T15:07:41.129Z,8.30
2018-05-12T15:10:06.997Z,7.30
2018-05-12T15:12:32.868Z,7.40
2018-05-12T15:14:58.755Z,7.67
2018-05-12T15:17:24.561Z,7.23
2018-05-12T15:19:50.400Z,7.80
2018-05-12T15:22:16.261Z,8.27
2018-05-12T15:24:42.110Z,8.13
2018-05-12T15:27:07.957Z,8.47
2018-05-12T15:29:33.835Z,8.83
2018-05-12T15:31:59.693Z,8.70
2018-05-12T15:34:25.540Z,7.57
2018-05-12T15:36:51.377Z,8.30
2018-05-12T15:39:17.251Z,8.70
2018-05-12T15:41:43.099Z,5.70
2018-05-12T15:44:08.967Z,4.93
2018-05-12T15:46:34.809Z,2.90
2018-05-12T15:49:00.633Z,3.73
2018-05-12T15:51:26.490Z,4.20
2018-05-12T15:53:52.409Z,8.27
2018-05-12T15:56:18.348Z,8.70
2018-05-12T15:58:44.189Z,9.50
2018-05-12T16:01:10.029Z,6.90
2018-05-12T16:03:35.929Z,5.40
2018-05-12T16:06:01.787Z,5.40
2018-05-12T16:08:27.668Z,7.07
2018-05-12T16:10:53.587Z,7.10
2018-05-12T16:13:19.465Z,7.30
2018-05-12T16:15:45.362Z,7.90
2018-05-12T16:18:11.248Z,9.37
2018-05-12T16:20:37.146Z,10.13
2018-05-12T16:23:03.025Z,12.60
2018-05-12T16:25:28.892Z,10.93
2018-05-12T16:27:54.766Z,11.20
2018-05-12T16:30:20.645Z,11.17
2018-05-12T16:32:46.476Z,11.77
2018-05-12T16:35:12.342Z,7.70
2018-05-12T16:37:38.205Z,4.07
2018-05-12T16:40:04.127Z,2.93
2018-05-12T16:42:30.015Z,2.70
2018-05-12T16:44:55.911Z,3.03
2018-05-12T16:47:21.772Z,4.17
2018-05-12T16:49:47.636Z,4.77
2018-05-12T16:52:13.505Z,6.33
2018-05-12T16:54:39.358Z,5.60
2018-05-12T16:57:05.208Z,5.53
2018-05-12T16:59:31.076Z,5.90
2018-05-12T17:01:56.978Z,4.70
2018-05-12T17:04:22.820Z,6.80
2018-05-12T17:06:48.673Z,7.33
2018-05-12T17:09:14.537Z,7.37
2018-05-12T17:11:40.433Z,6.13
2018-05-12T17:14:06.285Z,6.00
2018-05-12T17:16:33.109Z,6.37
2018-05-12T17:18:58.950Z,5.50
2018-05-12T17:21:24.870Z,6.20
2018-05-12T17:23:50.728Z,5.03
2018-05-12T17:26:16.565Z,5.90
2018-05-12T17:28:42.384Z,5.47
2018-05-12T17:31:08.232Z,5.40
2018-05-12T17:33:34.089Z,5.00
2018-05-12T17:35:59.941Z,6.30
2018-05-12T17:38:25.832Z,5.83
2018-05-12T17:40:51.684Z,6.13
2018-05-12T17:43:17.529Z,6.33
2018-05-12T17:45:43.483Z,6.30
2018-05-12T17:48:09.334Z,6.03
2018-05-12T17:50:35.230Z,6.60
2018-05-12T17:53:01.116Z,6.03
2018-05-12T17:55:26.965Z,7.03
2018-05-12T17:57:52.825Z,13.40
2018-05-12T18:00:18.677Z,13.07
2018-05-12T18:02:44.533Z,11.90
2018-05-12T18:05:10.385Z,11.47
2018-05-12T18:07:36.232Z,12.17
2018-05-12T18:10:02.163Z,11.40
2018-05-12T18:12:28.010Z,11.20
2018-05-12T18:14:53.875Z,7.70
2018-05-12T18:17:19.771Z,7.67
2018-05-12T18:19:45.633Z,7.50
2018-05-12T18:22:11.560Z,7.57
2018-05-12T18:24:37.452Z,7.70
2018-05-12T18:27:03.314Z,8.17
2018-05-12T18:29:29.188Z,9.07
2018-05-12T18:31:55.030Z,8.60
2018-05-12T18:34:20.861Z,8.20
2018-05-12T18:36:46.768Z,8.30
2018-05-12T18:39:12.642Z,8.50
2018-05-12T18:41:38.555Z,8.80
2018-05-12T18:44:04.493Z,8.10
2018-05-12T18:46:30.339Z,8.63
2018-05-12T18:48:56.212Z,8.57
2018-05-12T18:51:22.064Z,10.03
2018-05-12T18:53:47.969Z,9.60
2018-05-12T18:56:13.869Z,9.40
2018-05-12T18:58:39.775Z,8.67
2018-05-12T19:01:05.620Z,10.23
2018-05-12T19:03:31.488Z,10.50
2018-05-12T19:05:57.394Z,9.77
2018-05-12T19:08:23.333Z,9.30
2018-05-12T19:10:49.244Z,11.97
2018-05-12T19:13:15.085Z,9.67
2018-05-12T19:15:40.921Z,10.83
2018-05-12T19:18:06.882Z,12.37
2018-05-12T19:20:32.867Z,11.77
2018-05-12T19:22:58.755Z,10.60
2018-05-12T19:25:24.621Z,12.63
2018-05-12T19:27:50.504Z,12.03
2018-05-12T19:30:16.385Z,13.50
2018-05-12T19:32:42.301Z,13.77
2018-05-12T19:35:08.186Z,13.10
2018-05-12T19:37:34.116Z,13.27
2018-05-12T19:39:59.998Z,13.40
2018-05-12T19:42:25.881Z,12.53
2018-05-12T19:44:51.751Z,13.43
2018-05-12T19:47:17.653Z,14.70
2018-05-12T19:49:43.501Z,13.53
2018-05-12T19:52:09.365Z,15.83
2018-05-12T19:54:35.199Z,15.53
2018-05-12T19:57:01.095Z,15.70
2018-05-12T19:59:26.992Z,17.50
2018-05-12T20:01:52.900Z,16.33
2018-05-12T20:04:18.777Z,16.20
2018-05-12T20:06:44.661Z,15.53
2018-05-12T20:09:10.536Z,16.43
2018-05-12T20:11:36.365Z,16.90
2018-05-12T20:14:02.239Z,15.17
2018-05-12T20:16:28.092Z,20.33
2018-05-12T20:18:54.060Z,17.90
2018-05-12T20:21:19.900Z,18.17
2018-05-12T20:23:45.806Z,16.27
2018-05-12T20:26:11.636Z,17.90
2018-05-12T20:28:37.523Z,17.40
2018-05-12T20:31:03.419Z,17.27
2018-05-12T20:33:29.276Z,18.50
2018-05-12T20:35:55.196Z,18.53
2018-05-12T20:38:21.028Z,18.80
2018-05-12T20:40:46.882Z,17.93
2018-05-12T20:43:12.776Z,19.20
2018-05-12T20:45:38.644Z,17.30
2018-05-12T20:48:04.522Z,17.73
2018-05-12T20:50:30.400Z,16.30
2018-05-12T20:52:56.271Z,17.20
2018-05-12T20:55:22.175Z,16.97
2018-05-12T20:57:48.083Z,17.27
2018-05-12T21:00:13.932Z,15.67
2018-05-12T21:02:39.795Z,17.40
2018-05-12T21:05:05.688Z,15.80
2018-05-12T21:07:31.524Z,16.30
2018-05-12T21:09:57.405Z,15.87
2018-05-12T21:12:23.298Z,16.83
2018-05-12T21:14:49.153Z,15.30
2018-05-12T21:17:15.025Z,16.20
2018-05-12T21:19:40.892Z,15.20
2018-05-12T21:22:06.749Z,16.37
2018-05-12T21:24:32.593Z,14.60
2018-05-12T21:26:58.436Z,13.37
2018-05-12T21:29:24.362Z,16.73
2018-05-12T21:31:50.133Z,17.40
2018-05-12T21:34:16.010Z,15.60
2018-05-12T21:36:41.849Z,15.17
2018-05-12T21:39:07.709Z,14.60
2018-05-12T21:41:33.558Z,15.23
2018-05-12T21:43:59.385Z,15.47
2018-05-12T21:46:25.249Z,14.70
2018-05-12T21:48:51.101Z,15.20
2018-05-12T21:51:16.970Z,16.40
2018-05-12T21:53:42.801Z,16.63
2018-05-12T21:56:08.663Z,16.47
2018-05-12T21:58:34.522Z,16.33
2018-05-12T22:01:00.362Z,15.37
2018-05-12T22:03:26.197Z,16.03
2018-05-12T22:05:52.077Z,16.50
2018-05-12T22:08:17.933Z,15.53
2018-05-12T22:10:43.797Z,15.53
2018-05-12T22:13:09.608Z,16.23
2018-05-12T22:15:35.445Z,17.90
2018-05-12T22:18:01.308Z,19.27
2018-05-12T22:20:27.519Z,18.07
2018-05-12T22:22:53.375Z,19.40
2018-05-12T22:25:19.196Z,18.60
2018-05-12T22:27:45.110Z,19.70
2018-05-12T22:30:10.992Z,18.37
2018-05-12T22:32:36.884Z,17.93
2018-05-12T22:35:02.784Z,18.60
2018-05-12T22:37:29.208Z,17.03
2018-05-12T22:39:55.084Z,17.73
2018-05-12T22:42:20.941Z,17.60
2018-05-12T22:44:47.733Z,17.97
2018-05-12T22:47:13.637Z,19.67
2018-05-12T22:49:39.482Z,19.60
2018-05-12T22:52:05.348Z,18.17
2018-05-12T22:54:31.244Z,17.70
2018-05-12T22:56:57.084Z,18.90
2018-05-12T22:59:22.971Z,16.53
2018-05-12T23:01:48.847Z,16.20
2018-05-12T23:04:14.683Z,17.37
2018-05-12T23:06:40.552Z,17.50
2018-05-12T23:09:06.398Z,18.70
2018-05-12T23:11:32.264Z,18.43
2018-05-12T23:13:58.112Z,17.13
2018-05-12T23:16:23.988Z,16.67
2018-05-12T23:18:49.824Z,17.67
2018-05-12T23:21:15.681Z,17.67
2018-05-12T23:23:41.505Z,17.40
2018-05-12T23:26:07.349Z,17.50
2018-05-12T23:28:33.186Z,15.87
2018-05-12T23:30:59.047Z,15.87
2018-05-12T23:33:24.945Z,17.67
2018-05-12T23:35:50.792Z,17.30
2018-05-12T23:38:16.668Z,16.87
2018-05-12T23:40:43.075Z,17.77
2018-05-12T23:43:08.914Z,18.40
2018-05-12T23:45:34.775Z,18.43
2018-05-12T23:48:00.626Z,16.70
2018-05-12T23:50:26.464Z,19.20
2018-05-12T23:52:52.318Z,17.07
2018-05-12T23:55:18.145Z,17.10
2018-05-12T23:57:43.969Z,18.07
